sensor_id;sensor_type;location;lat;lon;timestamp;P1;durP1;ratioP1;P2;durP2;ratioP2
82296;SDS011;71899;51.992;8.648;2023-09-18T00:00:53;28.23;;;14.45;;
82296;SDS011;71899;51.992;8.648;2023-09-18T00:03:19;23.55;;;12.43;;
82296;SDS011;71899;51.992;8.648;2023-09-18T00:05:48;27.40;;;14.75;;
82296;SDS011;71899;51.992;8.648;2023-09-18T00:08:14;33.40;;;16.23;;
82296;SDS011;71899;51.992;8.648;2023-09-18T00:10:40;33.72;;;16.48;;
82296;SDS011;71899;51.992;8.648;2023-09-18T00:13:06;29.08;;;15.07;;
82296;SDS011;71899;51.992;8.648;2023-09-18T00:15:31;33.80;;;15.63;;
82296;SDS011;71899;51.992;8.648;2023-09-18T00:17:56;27.25;;;15.82;;
82296;SDS011;71899;51.992;8.648;2023-09-18T00:20:22;25.50;;;15.43;;
82296;SDS011;71899;51.992;8.648;2023-09-18T00:22:52;30.52;;;17.80;;
82296;SDS011;71899;51.992;8.648;2023-09-18T00:25:20;37.17;;;18.40;;
82296;SDS011;71899;51.992;8.648;2023-09-18T00:27:46;30.65;;;18.67;;
82296;SDS011;71899;51.992;8.648;2023-09-18T00:30:11;32.67;;;18.23;;
82296;SDS011;71899;51.992;8.648;2023-09-18T00:32:37;32.47;;;18.15;;
82296;SDS011;71899;51.992;8.648;2023-09-18T00:35:02;41.63;;;21.30;;
82296;SDS011;71899;51.992;8.648;2023-09-18T00:37:28;34.95;;;20.15;;
82296;SDS011;71899;51.992;8.648;2023-09-18T00:39:54;34.70;;;19.98;;
82296;SDS011;71899;51.992;8.648;2023-09-18T00:42:19;36.45;;;21.38;;
82296;SDS011;71899;51.992;8.648;2023-09-18T00:44:46;36.55;;;20.52;;
82296;SDS011;71899;51.992;8.648;2023-09-18T00:47:12;38.45;;;21.13;;
82296;SDS011;71899;51.992;8.648;2023-09-18T00:49:38;36.45;;;19.83;;
82296;SDS011;71899;51.992;8.648;2023-09-18T00:52:06;33.47;;;19.00;;
82296;SDS011;71899;51.992;8.648;2023-09-18T00:54:34;27.70;;;19.38;;
82296;SDS011;71899;51.992;8.648;2023-09-18T00:57:00;30.55;;;18.05;;
82296;SDS011;71899;51.992;8.648;2023-09-18T00:59:28;29.35;;;19.10;;
82296;SDS011;71899;51.992;8.648;2023-09-18T01:01:53;39.65;;;21.23;;
82296;SDS011;71899;51.992;8.648;2023-09-18T01:04:19;45.03;;;23.00;;
82296;SDS011;71899;51.992;8.648;2023-09-18T01:06:44;45.67;;;23.98;;
82296;SDS011;71899;51.992;8.648;2023-09-18T01:09:10;49.13;;;25.23;;
82296;SDS011;71899;51.992;8.648;2023-09-18T01:11:44;35.40;;;21.23;;
82296;SDS011;71899;51.992;8.648;2023-09-18T01:16:56;29.80;;;17.75;;
82296;SDS011;71899;51.992;8.648;2023-09-18T01:19:42;36.88;;;18.85;;
82296;SDS011;71899;51.992;8.648;2023-09-18T01:22:16;32.80;;;17.88;;
82296;SDS011;71899;51.992;8.648;2023-09-18T01:24:44;36.80;;;19.95;;
82296;SDS011;71899;51.992;8.648;2023-09-18T01:27:13;31.95;;;19.80;;
82296;SDS011;71899;51.992;8.648;2023-09-18T01:29:39;38.58;;;20.85;;
82296;SDS011;71899;51.992;8.648;2023-09-18T01:32:05;34.50;;;20.23;;
82296;SDS011;71899;51.992;8.648;2023-09-18T01:34:37;31.98;;;18.75;;
82296;SDS011;71899;51.992;8.648;2023-09-18T01:37:06;33.00;;;18.73;;
82296;SDS011;71899;51.992;8.648;2023-09-18T01:39:33;37.97;;;21.67;;
82296;SDS011;71899;51.992;8.648;2023-09-18T01:42:00;32.97;;;21.23;;
82296;SDS011;71899;51.992;8.648;2023-09-18T01:44:34;34.40;;;19.95;;
82296;SDS011;71899;51.992;8.648;2023-09-18T01:47:06;33.75;;;20.48;;
82296;SDS011;71899;51.992;8.648;2023-09-18T01:49:33;35.13;;;20.15;;
82296;SDS011;71899;51.992;8.648;2023-09-18T01:51:59;38.50;;;19.80;;
82296;SDS011;71899;51.992;8.648;2023-09-18T01:54:25;40.35;;;21.90;;
82296;SDS011;71899;51.992;8.648;2023-09-18T01:56:51;35.22;;;20.63;;
82296;SDS011;71899;51.992;8.648;2023-09-18T01:59:20;44.58;;;22.42;;
82296;SDS011;71899;51.992;8.648;2023-09-18T02:01:47;39.65;;;20.85;;
82296;SDS011;71899;51.992;8.648;2023-09-18T02:04:12;35.70;;;20.52;;
82296;SDS011;71899;51.992;8.648;2023-09-18T02:06:38;39.83;;;20.60;;
82296;SDS011;71899;51.992;8.648;2023-09-18T02:09:04;38.28;;;21.38;;
82296;SDS011;71899;51.992;8.648;2023-09-18T02:11:30;31.85;;;20.27;;
82296;SDS011;71899;51.992;8.648;2023-09-18T02:13:55;39.60;;;20.08;;
82296;SDS011;71899;51.992;8.648;2023-09-18T02:16:21;33.15;;;19.55;;
82296;SDS011;71899;51.992;8.648;2023-09-18T02:18:49;35.17;;;19.73;;
82296;SDS011;71899;51.992;8.648;2023-09-18T02:21:20;33.88;;;18.45;;
82296;SDS011;71899;51.992;8.648;2023-09-18T02:23:49;28.92;;;18.52;;
82296;SDS011;71899;51.992;8.648;2023-09-18T02:26:16;38.50;;;18.63;;
82296;SDS011;71899;51.992;8.648;2023-09-18T02:28:45;33.90;;;18.05;;
82296;SDS011;71899;51.992;8.648;2023-09-18T02:31:10;32.03;;;19.80;;
82296;SDS011;71899;51.992;8.648;2023-09-18T02:33:36;36.50;;;19.40;;
82296;SDS011;71899;51.992;8.648;2023-09-18T02:36:02;36.58;;;20.02;;
82296;SDS011;71899;51.992;8.648;2023-09-18T02:38:28;28.23;;;15.77;;
82296;SDS011;71899;51.992;8.648;2023-09-18T02:40:54;18.50;;;11.00;;
82296;SDS011;71899;51.992;8.648;2023-09-18T02:43:20;16.00;;;9.18;;
82296;SDS011;71899;51.992;8.648;2023-09-18T02:45:46;9.73;;;6.93;;
82296;SDS011;71899;51.992;8.648;2023-09-18T02:48:11;6.47;;;4.85;;
82296;SDS011;71899;51.992;8.648;2023-09-18T02:50:37;6.13;;;4.72;;
82296;SDS011;71899;51.992;8.648;2023-09-18T02:53:02;9.68;;;4.40;;
82296;SDS011;71899;51.992;8.648;2023-09-18T02:55:28;7.15;;;3.78;;
82296;SDS011;71899;51.992;8.648;2023-09-18T02:57:54;7.70;;;3.90;;
82296;SDS011;71899;51.992;8.648;2023-09-18T03:00:19;7.05;;;4.88;;
82296;SDS011;71899;51.992;8.648;2023-09-18T03:02:45;7.28;;;3.65;;
82296;SDS011;71899;51.992;8.648;2023-09-18T03:05:10;11.45;;;4.93;;
82296;SDS011;71899;51.992;8.648;2023-09-18T03:07:35;5.90;;;4.05;;
82296;SDS011;71899;51.992;8.648;2023-09-18T03:10:02;8.65;;;4.15;;
82296;SDS011;71899;51.992;8.648;2023-09-18T03:12:27;6.00;;;3.35;;
82296;SDS011;71899;51.992;8.648;2023-09-18T03:14:53;4.50;;;3.40;;
82296;SDS011;71899;51.992;8.648;2023-09-18T03:17:18;8.15;;;3.97;;
82296;SDS011;71899;51.992;8.648;2023-09-18T03:19:47;6.53;;;3.28;;
82296;SDS011;71899;51.992;8.648;2023-09-18T03:22:13;6.38;;;3.33;;
82296;SDS011;71899;51.992;8.648;2023-09-18T03:24:38;5.18;;;3.20;;
82296;SDS011;71899;51.992;8.648;2023-09-18T03:27:04;5.65;;;3.55;;
82296;SDS011;71899;51.992;8.648;2023-09-18T03:29:29;6.05;;;3.45;;
82296;SDS011;71899;51.992;8.648;2023-09-18T03:31:56;4.70;;;3.33;;
82296;SDS011;71899;51.992;8.648;2023-09-18T03:34:24;6.53;;;3.03;;
82296;SDS011;71899;51.992;8.648;2023-09-18T03:36:52;8.32;;;3.80;;
82296;SDS011;71899;51.992;8.648;2023-09-18T03:39:18;6.70;;;3.75;;
82296;SDS011;71899;51.992;8.648;2023-09-18T03:41:44;4.95;;;3.13;;
82296;SDS011;71899;51.992;8.648;2023-09-18T03:44:10;5.53;;;3.40;;
82296;SDS011;71899;51.992;8.648;2023-09-18T03:46:35;4.85;;;3.65;;
82296;SDS011;71899;51.992;8.648;2023-09-18T03:49:01;5.30;;;3.65;;
82296;SDS011;71899;51.992;8.648;2023-09-18T03:51:30;6.45;;;3.67;;
82296;SDS011;71899;51.992;8.648;2023-09-18T03:53:56;6.20;;;3.25;;
82296;SDS011;71899;51.992;8.648;2023-09-18T03:56:21;7.20;;;3.47;;
82296;SDS011;71899;51.992;8.648;2023-09-18T03:58:47;6.10;;;3.63;;
82296;SDS011;71899;51.992;8.648;2023-09-18T04:01:15;5.22;;;3.53;;
82296;SDS011;71899;51.992;8.648;2023-09-18T04:03:40;3.58;;;3.25;;
82296;SDS011;71899;51.992;8.648;2023-09-18T04:06:06;6.88;;;3.90;;
82296;SDS011;71899;51.992;8.648;2023-09-18T04:08:31;3.75;;;2.53;;
82296;SDS011;71899;51.992;8.648;2023-09-18T04:10:59;4.97;;;2.90;;
82296;SDS011;71899;51.992;8.648;2023-09-18T04:13:25;8.50;;;3.70;;
82296;SDS011;71899;51.992;8.648;2023-09-18T04:15:51;5.07;;;2.85;;
82296;SDS011;71899;51.992;8.648;2023-09-18T04:18:22;6.38;;;3.10;;
82296;SDS011;71899;51.992;8.648;2023-09-18T04:20:48;6.78;;;3.03;;
82296;SDS011;71899;51.992;8.648;2023-09-18T04:23:16;4.28;;;3.22;;
82296;SDS011;71899;51.992;8.648;2023-09-18T04:25:47;6.05;;;3.90;;
82296;SDS011;71899;51.992;8.648;2023-09-18T04:28:13;10.38;;;3.72;;
82296;SDS011;71899;51.992;8.648;2023-09-18T04:30:39;6.88;;;3.92;;
82296;SDS011;71899;51.992;8.648;2023-09-18T04:33:06;5.55;;;2.85;;
82296;SDS011;71899;51.992;8.648;2023-09-18T04:35:31;5.40;;;3.22;;
82296;SDS011;71899;51.992;8.648;2023-09-18T04:37:58;6.95;;;3.50;;
82296;SDS011;71899;51.992;8.648;2023-09-18T04:40:24;5.10;;;3.88;;
82296;SDS011;71899;51.992;8.648;2023-09-18T04:42:51;7.90;;;3.10;;
82296;SDS011;71899;51.992;8.648;2023-09-18T04:45:17;5.13;;;2.95;;
82296;SDS011;71899;51.992;8.648;2023-09-18T04:47:42;6.45;;;3.33;;
82296;SDS011;71899;51.992;8.648;2023-09-18T04:50:08;7.78;;;3.53;;
82296;SDS011;71899;51.992;8.648;2023-09-18T04:52:33;4.53;;;3.28;;
82296;SDS011;71899;51.992;8.648;2023-09-18T04:54:59;3.67;;;3.30;;
82296;SDS011;71899;51.992;8.648;2023-09-18T04:57:24;7.47;;;3.80;;
82296;SDS011;71899;51.992;8.648;2023-09-18T04:59:50;6.30;;;3.33;;
82296;SDS011;71899;51.992;8.648;2023-09-18T05:02:15;9.85;;;3.35;;
82296;SDS011;71899;51.992;8.648;2023-09-18T05:04:41;7.13;;;3.75;;
82296;SDS011;71899;51.992;8.648;2023-09-18T05:07:07;5.53;;;3.20;;
82296;SDS011;71899;51.992;8.648;2023-09-18T05:09:32;6.78;;;3.25;;
82296;SDS011;71899;51.992;8.648;2023-09-18T05:11:59;5.20;;;3.88;;
82296;SDS011;71899;51.992;8.648;2023-09-18T05:14:24;5.40;;;3.50;;
82296;SDS011;71899;51.992;8.648;2023-09-18T05:16:50;7.45;;;4.22;;
82296;SDS011;71899;51.992;8.648;2023-09-18T05:19:15;7.70;;;4.07;;
82296;SDS011;71899;51.992;8.648;2023-09-18T05:21:40;9.75;;;4.13;;
82296;SDS011;71899;51.992;8.648;2023-09-18T05:24:07;4.78;;;3.90;;
82296;SDS011;71899;51.992;8.648;2023-09-18T05:26:32;5.47;;;4.30;;
82296;SDS011;71899;51.992;8.648;2023-09-18T05:28:58;7.03;;;4.05;;
82296;SDS011;71899;51.992;8.648;2023-09-18T05:31:24;5.68;;;4.32;;
82296;SDS011;71899;51.992;8.648;2023-09-18T05:33:49;7.68;;;3.85;;
82296;SDS011;71899;51.992;8.648;2023-09-18T05:36:14;5.60;;;4.35;;
82296;SDS011;71899;51.992;8.648;2023-09-18T05:38:40;6.65;;;4.38;;
82296;SDS011;71899;51.992;8.648;2023-09-18T05:41:05;8.20;;;4.70;;
82296;SDS011;71899;51.992;8.648;2023-09-18T05:43:30;5.55;;;4.13;;
82296;SDS011;71899;51.992;8.648;2023-09-18T05:45:56;5.50;;;4.00;;
82296;SDS011;71899;51.992;8.648;2023-09-18T05:48:21;8.35;;;4.22;;
82296;SDS011;71899;51.992;8.648;2023-09-18T05:50:46;6.55;;;4.10;;
82296;SDS011;71899;51.992;8.648;2023-09-18T05:53:12;5.85;;;3.88;;
82296;SDS011;71899;51.992;8.648;2023-09-18T05:55:38;11.30;;;3.85;;
82296;SDS011;71899;51.992;8.648;2023-09-18T05:58:03;7.68;;;4.15;;
82296;SDS011;71899;51.992;8.648;2023-09-18T06:00:29;4.63;;;3.50;;
82296;SDS011;71899;51.992;8.648;2023-09-18T06:02:55;9.93;;;4.32;;
82296;SDS011;71899;51.992;8.648;2023-09-18T06:05:21;4.90;;;3.67;;
82296;SDS011;71899;51.992;8.648;2023-09-18T06:07:47;7.32;;;3.83;;
82296;SDS011;71899;51.992;8.648;2023-09-18T06:10:13;4.32;;;3.10;;
82296;SDS011;71899;51.992;8.648;2023-09-18T06:12:39;5.72;;;3.85;;
82296;SDS011;71899;51.992;8.648;2023-09-18T06:15:06;6.75;;;3.40;;
82296;SDS011;71899;51.992;8.648;2023-09-18T06:17:35;10.60;;;4.18;;
82296;SDS011;71899;51.992;8.648;2023-09-18T06:20:01;4.25;;;3.33;;
82296;SDS011;71899;51.992;8.648;2023-09-18T06:22:27;6.78;;;3.80;;
82296;SDS011;71899;51.992;8.648;2023-09-18T06:24:52;9.32;;;4.20;;
82296;SDS011;71899;51.992;8.648;2023-09-18T06:27:18;4.82;;;3.10;;
82296;SDS011;71899;51.992;8.648;2023-09-18T06:29:43;9.27;;;4.90;;
82296;SDS011;71899;51.992;8.648;2023-09-18T06:32:09;8.80;;;4.63;;
82296;SDS011;71899;51.992;8.648;2023-09-18T06:34:34;6.03;;;3.70;;
82296;SDS011;71899;51.992;8.648;2023-09-18T06:36:59;5.68;;;3.67;;
82296;SDS011;71899;51.992;8.648;2023-09-18T06:39:25;7.47;;;3.70;;
82296;SDS011;71899;51.992;8.648;2023-09-18T06:41:51;5.82;;;3.53;;
82296;SDS011;71899;51.992;8.648;2023-09-18T06:44:18;9.25;;;4.25;;
82296;SDS011;71899;51.992;8.648;2023-09-18T06:46:43;4.70;;;3.42;;
82296;SDS011;71899;51.992;8.648;2023-09-18T06:49:08;7.15;;;3.47;;
82296;SDS011;71899;51.992;8.648;2023-09-18T06:51:34;5.07;;;3.22;;
82296;SDS011;71899;51.992;8.648;2023-09-18T06:54:00;7.82;;;3.60;;
82296;SDS011;71899;51.992;8.648;2023-09-18T06:56:27;7.00;;;3.60;;
82296;SDS011;71899;51.992;8.648;2023-09-18T06:58:53;4.68;;;3.50;;
82296;SDS011;71899;51.992;8.648;2023-09-18T07:01:20;5.20;;;3.55;;
82296;SDS011;71899;51.992;8.648;2023-09-18T07:03:46;5.75;;;3.40;;
82296;SDS011;71899;51.992;8.648;2023-09-18T07:06:15;5.07;;;3.40;;
82296;SDS011;71899;51.992;8.648;2023-09-18T07:08:42;4.47;;;2.85;;
82296;SDS011;71899;51.992;8.648;2023-09-18T07:11:08;7.05;;;4.22;;
82296;SDS011;71899;51.992;8.648;2023-09-18T07:13:33;5.63;;;3.47;;
82296;SDS011;71899;51.992;8.648;2023-09-18T07:15:58;5.82;;;2.95;;
82296;SDS011;71899;51.992;8.648;2023-09-18T07:18:23;5.35;;;3.53;;
82296;SDS011;71899;51.992;8.648;2023-09-18T07:20:49;5.57;;;3.00;;
82296;SDS011;71899;51.992;8.648;2023-09-18T07:23:14;7.05;;;2.97;;
82296;SDS011;71899;51.992;8.648;2023-09-18T07:25:39;4.45;;;2.78;;
82296;SDS011;71899;51.992;8.648;2023-09-18T07:28:08;6.35;;;2.85;;
82296;SDS011;71899;51.992;8.648;2023-09-18T07:30:34;3.67;;;2.53;;
82296;SDS011;71899;51.992;8.648;2023-09-18T07:33:01;4.63;;;2.70;;
82296;SDS011;71899;51.992;8.648;2023-09-18T07:35:26;4.72;;;2.90;;
82296;SDS011;71899;51.992;8.648;2023-09-18T07:37:52;5.90;;;2.53;;
82296;SDS011;71899;51.992;8.648;2023-09-18T07:40:17;7.07;;;3.25;;
82296;SDS011;71899;51.992;8.648;2023-09-18T07:42:42;8.95;;;2.72;;
82296;SDS011;71899;51.992;8.648;2023-09-18T07:45:11;6.22;;;2.60;;
82296;SDS011;71899;51.992;8.648;2023-09-18T07:47:37;5.72;;;2.55;;
82296;SDS011;71899;51.992;8.648;2023-09-18T07:50:02;7.28;;;2.30;;
82296;SDS011;71899;51.992;8.648;2023-09-18T07:52:28;12.77;;;2.58;;
82296;SDS011;71899;51.992;8.648;2023-09-18T07:54:54;8.13;;;2.83;;
82296;SDS011;71899;51.992;8.648;2023-09-18T07:57:20;6.25;;;2.33;;
82296;SDS011;71899;51.992;8.648;2023-09-18T07:59:47;8.13;;;2.53;;
82296;SDS011;71899;51.992;8.648;2023-09-18T08:02:13;5.30;;;2.05;;
82296;SDS011;71899;51.992;8.648;2023-09-18T08:04:38;5.63;;;1.98;;
82296;SDS011;71899;51.992;8.648;2023-09-18T08:07:04;4.75;;;1.85;;
82296;SDS011;71899;51.992;8.648;2023-09-18T08:09:32;6.65;;;2.10;;
82296;SDS011;71899;51.992;8.648;2023-09-18T08:12:01;4.40;;;2.08;;
82296;SDS011;71899;51.992;8.648;2023-09-18T08:14:27;5.00;;;2.60;;
82296;SDS011;71899;51.992;8.648;2023-09-18T08:16:56;7.78;;;1.80;;
82296;SDS011;71899;51.992;8.648;2023-09-18T08:19:22;10.50;;;2.63;;
82296;SDS011;71899;51.992;8.648;2023-09-18T08:21:48;5.85;;;1.95;;
82296;SDS011;71899;51.992;8.648;2023-09-18T08:24:14;5.25;;;2.05;;
82296;SDS011;71899;51.992;8.648;2023-09-18T08:26:39;6.95;;;1.75;;
82296;SDS011;71899;51.992;8.648;2023-09-18T08:29:04;5.38;;;1.60;;
82296;SDS011;71899;51.992;8.648;2023-09-18T08:31:30;5.00;;;1.58;;
82296;SDS011;71899;51.992;8.648;2023-09-18T08:33:56;6.13;;;2.13;;
82296;SDS011;71899;51.992;8.648;2023-09-18T08:36:22;4.20;;;1.70;;
82296;SDS011;71899;51.992;8.648;2023-09-18T08:38:47;9.98;;;1.67;;
82296;SDS011;71899;51.992;8.648;2023-09-18T08:41:13;3.00;;;1.75;;
82296;SDS011;71899;51.992;8.648;2023-09-18T08:43:39;5.35;;;2.00;;
82296;SDS011;71899;51.992;8.648;2023-09-18T08:46:07;8.43;;;2.40;;
82296;SDS011;71899;51.992;8.648;2023-09-18T08:48:34;12.27;;;3.28;;
82296;SDS011;71899;51.992;8.648;2023-09-18T08:51:03;4.78;;;2.17;;
82296;SDS011;71899;51.992;8.648;2023-09-18T08:53:30;4.55;;;2.15;;
82296;SDS011;71899;51.992;8.648;2023-09-18T08:55:57;14.50;;;2.30;;
82296;SDS011;71899;51.992;8.648;2023-09-18T08:58:24;4.22;;;1.83;;
82296;SDS011;71899;51.992;8.648;2023-09-18T09:00:51;8.13;;;1.95;;
82296;SDS011;71899;51.992;8.648;2023-09-18T09:03:17;5.63;;;1.80;;
82296;SDS011;71899;51.992;8.648;2023-09-18T09:05:43;6.22;;;2.00;;
82296;SDS011;71899;51.992;8.648;2023-09-18T09:08:08;5.57;;;1.98;;
82296;SDS011;71899;51.992;8.648;2023-09-18T09:10:33;5.30;;;1.90;;
82296;SDS011;71899;51.992;8.648;2023-09-18T09:12:59;10.90;;;1.90;;
82296;SDS011;71899;51.992;8.648;2023-09-18T09:15:27;12.80;;;2.47;;
82296;SDS011;71899;51.992;8.648;2023-09-18T09:18:06;5.20;;;2.15;;
82296;SDS011;71899;51.992;8.648;2023-09-18T09:20:32;4.57;;;1.83;;
82296;SDS011;71899;51.992;8.648;2023-09-18T09:23:01;5.20;;;1.40;;
82296;SDS011;71899;51.992;8.648;2023-09-18T09:25:28;11.68;;;1.92;;
82296;SDS011;71899;51.992;8.648;2023-09-18T09:27:57;7.07;;;2.20;;
82296;SDS011;71899;51.992;8.648;2023-09-18T09:30:24;7.15;;;1.67;;
82296;SDS011;71899;51.992;8.648;2023-09-18T09:32:50;7.65;;;1.58;;
82296;SDS011;71899;51.992;8.648;2023-09-18T09:35:21;5.70;;;2.03;;
82296;SDS011;71899;51.992;8.648;2023-09-18T09:40:18;5.80;;;1.63;;
82296;SDS011;71899;51.992;8.648;2023-09-18T09:42:45;6.80;;;1.92;;
82296;SDS011;71899;51.992;8.648;2023-09-18T09:45:12;5.55;;;1.73;;
82296;SDS011;71899;51.992;8.648;2023-09-18T09:47:39;5.78;;;1.90;;
82296;SDS011;71899;51.992;8.648;2023-09-18T09:50:08;4.95;;;2.22;;
82296;SDS011;71899;51.992;8.648;2023-09-18T09:52:35;5.85;;;1.85;;
82296;SDS011;71899;51.992;8.648;2023-09-18T09:55:02;6.95;;;2.63;;
82296;SDS011;71899;51.992;8.648;2023-09-18T09:57:30;4.88;;;2.00;;
82296;SDS011;71899;51.992;8.648;2023-09-18T10:00:05;4.18;;;1.60;;
82296;SDS011;71899;51.992;8.648;2023-09-18T10:02:50;7.22;;;1.63;;
82296;SDS011;71899;51.992;8.648;2023-09-18T10:05:16;5.22;;;1.45;;
82296;SDS011;71899;51.992;8.648;2023-09-18T10:07:44;4.85;;;1.50;;
82296;SDS011;71899;51.992;8.648;2023-09-18T10:10:09;3.75;;;1.42;;
82296;SDS011;71899;51.992;8.648;2023-09-18T10:12:35;4.82;;;1.45;;
82296;SDS011;71899;51.992;8.648;2023-09-18T10:15:02;8.55;;;2.58;;
82296;SDS011;71899;51.992;8.648;2023-09-18T10:17:28;6.93;;;1.90;;
82296;SDS011;71899;51.992;8.648;2023-09-18T10:20:02;3.38;;;1.35;;
82296;SDS011;71899;51.992;8.648;2023-09-18T10:22:39;4.32;;;1.30;;
82296;SDS011;71899;51.992;8.648;2023-09-18T10:25:14;3.78;;;1.60;;
82296;SDS011;71899;51.992;8.648;2023-09-18T10:27:50;5.05;;;1.63;;
82296;SDS011;71899;51.992;8.648;2023-09-18T10:30:18;5.82;;;1.20;;
82296;SDS011;71899;51.992;8.648;2023-09-18T10:32:45;6.20;;;1.73;;
82296;SDS011;71899;51.992;8.648;2023-09-18T10:35:11;5.22;;;1.70;;
82296;SDS011;71899;51.992;8.648;2023-09-18T10:37:43;1.63;;;0.90;;
82296;SDS011;71899;51.992;8.648;2023-09-18T10:40:10;3.90;;;1.38;;
82296;SDS011;71899;51.992;8.648;2023-09-18T10:42:41;3.42;;;0.90;;
82296;SDS011;71899;51.992;8.648;2023-09-18T10:45:08;8.35;;;1.38;;
82296;SDS011;71899;51.992;8.648;2023-09-18T10:47:41;6.90;;;2.10;;
82296;SDS011;71899;51.992;8.648;2023-09-18T10:50:15;3.35;;;1.42;;
82296;SDS011;71899;51.992;8.648;2023-09-18T10:52:48;2.08;;;0.95;;
82296;SDS011;71899;51.992;8.648;2023-09-18T10:55:13;7.72;;;1.55;;
82296;SDS011;71899;51.992;8.648;2023-09-18T10:57:52;5.78;;;1.30;;
82296;SDS011;71899;51.992;8.648;2023-09-18T11:00:24;5.60;;;1.25;;
82296;SDS011;71899;51.992;8.648;2023-09-18T11:02:53;5.78;;;1.20;;
82296;SDS011;71899;51.992;8.648;2023-09-18T11:05:34;6.00;;;1.33;;
82296;SDS011;71899;51.992;8.648;2023-09-18T11:10:54;3.35;;;1.80;;
82296;SDS011;71899;51.992;8.648;2023-09-18T11:13:30;5.18;;;1.45;;
82296;SDS011;71899;51.992;8.648;2023-09-18T11:15:59;2.15;;;1.25;;
82296;SDS011;71899;51.992;8.648;2023-09-18T11:18:31;6.07;;;1.20;;
82296;SDS011;71899;51.992;8.648;2023-09-18T11:21:10;3.28;;;1.00;;
82296;SDS011;71899;51.992;8.648;2023-09-18T11:23:38;2.45;;;1.13;;
82296;SDS011;71899;51.992;8.648;2023-09-18T11:26:08;2.70;;;1.17;;
82296;SDS011;71899;51.992;8.648;2023-09-18T11:28:34;3.70;;;2.00;;
82296;SDS011;71899;51.992;8.648;2023-09-18T11:31:00;2.63;;;1.23;;
82296;SDS011;71899;51.992;8.648;2023-09-18T11:33:35;4.03;;;1.50;;
82296;SDS011;71899;51.992;8.648;2023-09-18T11:38:32;4.18;;;1.55;;
82296;SDS011;71899;51.992;8.648;2023-09-18T11:41:01;5.88;;;1.20;;
82296;SDS011;71899;51.992;8.648;2023-09-18T11:43:46;3.80;;;1.10;;
82296;SDS011;71899;51.992;8.648;2023-09-18T11:46:11;7.40;;;2.13;;
82296;SDS011;71899;51.992;8.648;2023-09-18T11:48:43;3.25;;;1.30;;
82296;SDS011;71899;51.992;8.648;2023-09-18T11:51:09;2.50;;;1.17;;
82296;SDS011;71899;51.992;8.648;2023-09-18T11:53:37;8.90;;;2.33;;
82296;SDS011;71899;51.992;8.648;2023-09-18T11:56:09;6.95;;;1.58;;
82296;SDS011;71899;51.992;8.648;2023-09-18T11:58:51;4.63;;;1.45;;
82296;SDS011;71899;51.992;8.648;2023-09-18T12:01:19;3.00;;;1.30;;
82296;SDS011;71899;51.992;8.648;2023-09-18T12:03:52;3.03;;;1.20;;
82296;SDS011;71899;51.992;8.648;2023-09-18T12:06:18;1.75;;;0.90;;
82296;SDS011;71899;51.992;8.648;2023-09-18T12:08:43;2.15;;;1.00;;
82296;SDS011;71899;51.992;8.648;2023-09-18T12:11:09;2.65;;;1.10;;
82296;SDS011;71899;51.992;8.648;2023-09-18T12:13:34;2.78;;;1.10;;
82296;SDS011;71899;51.992;8.648;2023-09-18T12:16:03;4.15;;;1.55;;
82296;SDS011;71899;51.992;8.648;2023-09-18T12:18:32;2.88;;;1.05;;
82296;SDS011;71899;51.992;8.648;2023-09-18T12:21:00;3.33;;;1.50;;
82296;SDS011;71899;51.992;8.648;2023-09-18T12:23:29;1.88;;;1.63;;
82296;SDS011;71899;51.992;8.648;2023-09-18T12:26:02;3.55;;;1.30;;
82296;SDS011;71899;51.992;8.648;2023-09-18T12:28:29;3.65;;;1.25;;
82296;SDS011;71899;51.992;8.648;2023-09-18T12:30:55;4.43;;;2.30;;
82296;SDS011;71899;51.992;8.648;2023-09-18T12:33:22;2.50;;;0.95;;
82296;SDS011;71899;51.992;8.648;2023-09-18T12:35:49;3.08;;;1.30;;
82296;SDS011;71899;51.992;8.648;2023-09-18T12:38:18;2.72;;;0.90;;
82296;SDS011;71899;51.992;8.648;2023-09-18T12:40:52;3.13;;;1.10;;
82296;SDS011;71899;51.992;8.648;2023-09-18T12:43:18;2.08;;;1.17;;
82296;SDS011;71899;51.992;8.648;2023-09-18T12:45:44;4.95;;;1.60;;
82296;SDS011;71899;51.992;8.648;2023-09-18T12:48:11;4.70;;;1.27;;
82296;SDS011;71899;51.992;8.648;2023-09-18T12:50:37;2.25;;;1.17;;
82296;SDS011;71899;51.992;8.648;2023-09-18T12:53:06;3.53;;;1.60;;
82296;SDS011;71899;51.992;8.648;2023-09-18T12:55:35;1.63;;;0.93;;
82296;SDS011;71899;51.992;8.648;2023-09-18T12:58:02;2.83;;;1.50;;
82296;SDS011;71899;51.992;8.648;2023-09-18T13:00:32;4.20;;;1.30;;
82296;SDS011;71899;51.992;8.648;2023-09-18T13:02:58;3.75;;;1.00;;
82296;SDS011;71899;51.992;8.648;2023-09-18T13:05:24;4.28;;;1.45;;
82296;SDS011;71899;51.992;8.648;2023-09-18T13:07:51;2.90;;;1.33;;
82296;SDS011;71899;51.992;8.648;2023-09-18T13:10:18;4.30;;;1.10;;
82296;SDS011;71899;51.992;8.648;2023-09-18T13:12:47;2.92;;;1.48;;
82296;SDS011;71899;51.992;8.648;2023-09-18T13:15:24;10.38;;;1.40;;
82296;SDS011;71899;51.992;8.648;2023-09-18T13:17:57;2.13;;;1.00;;
82296;SDS011;71899;51.992;8.648;2023-09-18T13:20:25;4.22;;;1.25;;
82296;SDS011;71899;51.992;8.648;2023-09-18T13:22:53;3.40;;;1.30;;
82296;SDS011;71899;51.992;8.648;2023-09-18T13:25:21;4.78;;;1.25;;
82296;SDS011;71899;51.992;8.648;2023-09-18T13:28:08;3.72;;;1.20;;
82296;SDS011;71899;51.992;8.648;2023-09-18T13:30:35;2.97;;;1.00;;
82296;SDS011;71899;51.992;8.648;2023-09-18T13:33:11;1.85;;;1.23;;
82296;SDS011;71899;51.992;8.648;2023-09-18T13:35:41;3.75;;;1.10;;
82296;SDS011;71899;51.992;8.648;2023-09-18T13:38:08;2.88;;;1.20;;
82296;SDS011;71899;51.992;8.648;2023-09-18T13:40:37;1.23;;;0.93;;
82296;SDS011;71899;51.992;8.648;2023-09-18T13:43:04;2.53;;;1.55;;
82296;SDS011;71899;51.992;8.648;2023-09-18T13:45:30;2.28;;;1.80;;
82296;SDS011;71899;51.992;8.648;2023-09-18T13:47:56;2.90;;;1.40;;
82296;SDS011;71899;51.992;8.648;2023-09-18T13:50:21;1.42;;;1.10;;
82296;SDS011;71899;51.992;8.648;2023-09-18T13:52:47;2.80;;;1.20;;
82296;SDS011;71899;51.992;8.648;2023-09-18T13:55:12;2.67;;;1.10;;
82296;SDS011;71899;51.992;8.648;2023-09-18T13:57:37;7.97;;;1.27;;
82296;SDS011;71899;51.992;8.648;2023-09-18T14:00:05;3.65;;;1.10;;
82296;SDS011;71899;51.992;8.648;2023-09-18T14:02:37;4.35;;;1.02;;
82296;SDS011;71899;51.992;8.648;2023-09-18T14:05:04;5.03;;;1.30;;
82296;SDS011;71899;51.992;8.648;2023-09-18T14:07:30;2.03;;;0.70;;
82296;SDS011;71899;51.992;8.648;2023-09-18T14:09:55;2.92;;;1.20;;
82296;SDS011;71899;51.992;8.648;2023-09-18T14:12:21;4.97;;;1.48;;
82296;SDS011;71899;51.992;8.648;2023-09-18T14:14:46;4.28;;;1.63;;
82296;SDS011;71899;51.992;8.648;2023-09-18T14:17:11;3.58;;;1.30;;
82296;SDS011;71899;51.992;8.648;2023-09-18T14:19:37;2.97;;;0.98;;
82296;SDS011;71899;51.992;8.648;2023-09-18T14:22:03;3.83;;;1.10;;
82296;SDS011;71899;51.992;8.648;2023-09-18T14:24:30;3.90;;;1.20;;
82296;SDS011;71899;51.992;8.648;2023-09-18T14:26:56;2.75;;;1.10;;
82296;SDS011;71899;51.992;8.648;2023-09-18T14:29:21;1.95;;;1.05;;
82296;SDS011;71899;51.992;8.648;2023-09-18T14:31:47;3.97;;;1.20;;
82296;SDS011;71899;51.992;8.648;2023-09-18T14:34:12;2.50;;;1.20;;
82296;SDS011;71899;51.992;8.648;2023-09-18T14:36:37;3.10;;;1.00;;
82296;SDS011;71899;51.992;8.648;2023-09-18T14:39:05;6.03;;;1.38;;
82296;SDS011;71899;51.992;8.648;2023-09-18T14:41:36;2.83;;;1.20;;
82296;SDS011;71899;51.992;8.648;2023-09-18T14:44:03;3.40;;;1.00;;
82296;SDS011;71899;51.992;8.648;2023-09-18T14:46:29;2.55;;;0.98;;
82296;SDS011;71899;51.992;8.648;2023-09-18T14:48:55;1.48;;;1.00;;
82296;SDS011;71899;51.992;8.648;2023-09-18T14:51:21;4.40;;;1.10;;
82296;SDS011;71899;51.992;8.648;2023-09-18T14:53:46;3.72;;;0.80;;